sensor_id;sensor_type;location;lat;lon;timestamp;pressure;altitude;pressure_sealevel;temperature;humidity
38400;BME280;24180;42.676;23.320;2024-01-30T00:01:01;96914.06;;;-1.54;63.27
38400;BME280;24180;42.676;23.320;2024-01-30T00:03:26;96868.81;;;-1.84;64.09
38400;BME280;24180;42.676;23.320;2024-01-30T00:05:52;96912.13;;;-1.59;63.19
38400;BME280;24180;42.676;23.320;2024-01-30T00:08:17;96907.22;;;-1.60;64.26
38400;BME280;24180;42.676;23.320;2024-01-30T00:10:43;96894.56;;;-1.74;63.75
38400;BME280;24180;42.676;23.320;2024-01-30T00:13:08;96914.66;;;-1.59;63.31
38400;BME280;24180;42.676;23.320;2024-01-30T00:15:34;96900.63;;;-1.68;63.66
38400;BME280;24180;42.676;23.320;2024-01-30T00:18:00;96911.72;;;-1.69;63.92
38400;BME280;24180;42.676;23.320;2024-01-30T00:20:26;96908.63;;;-1.71;63.81
38400;BME280;24180;42.676;23.320;2024-01-30T00:22:51;96910.75;;;-1.68;62.64
38400;BME280;24180;42.676;23.320;2024-01-30T00:25:17;96908.63;;;-1.71;63.07
38400;BME280;24180;42.676;23.320;2024-01-30T00:27:42;96924.22;;;-1.68;64.04
38400;BME280;24180;42.676;23.320;2024-01-30T00:30:09;96901.97;;;-1.85;63.99
38400;BME280;24180;42.676;23.320;2024-01-30T00:32:34;96914.25;;;-1.76;64.07
38400;BME280;24180;42.676;23.320;2024-01-30T00:35:00;96926.94;;;-1.69;63.56
38400;BME280;24180;42.676;23.320;2024-01-30T00:37:25;96924.22;;;-1.68;62.77
38400;BME280;24180;42.676;23.320;2024-01-30T00:39:51;96922.28;;;-1.72;63.82
38400;BME280;24180;42.676;23.320;2024-01-30T00:42:16;96919.31;;;-1.69;63.16
38400;BME280;24180;42.676;23.320;2024-01-30T00:44:42;96893.19;;;-1.96;63.98
38400;BME280;24180;42.676;23.320;2024-01-30T00:47:07;96892.97;;;-2.01;65.54
38400;BME280;24180;42.676;23.320;2024-01-30T00:49:33;96915.22;;;-2.03;65.07
38400;BME280;24180;42.676;23.320;2024-01-30T00:51:58;96916.97;;;-2.11;65.68
38400;BME280;24180;42.676;23.320;2024-01-30T00:54:24;96909.34;;;-2.17;65.25
38400;BME280;24180;42.676;23.320;2024-01-30T00:56:49;96924.00;;;-2.06;66.06
38400;BME280;24180;42.676;23.320;2024-01-30T00:59:15;96915.41;;;-2.12;65.16
38400;BME280;24180;42.676;23.320;2024-01-30T01:01:40;96925.38;;;-2.10;65.50
38400;BME280;24180;42.676;23.320;2024-01-30T01:04:06;96926.16;;;-2.03;66.07
38400;BME280;24180;42.676;23.320;2024-01-30T01:06:32;96918.34;;;-2.01;65.78
38400;BME280;24180;42.676;23.320;2024-01-30T01:08:58;96921.47;;;-1.99;65.19
38400;BME280;24180;42.676;23.320;2024-01-30T01:11:23;96910.72;;;-2.01;65.37
38400;BME280;24180;42.676;23.320;2024-01-30T01:13:48;96903.31;;;-2.09;65.43
38400;BME280;24180;42.676;23.320;2024-01-30T01:16:14;96902.72;;;-2.12;66.20
38400;BME280;24180;42.676;23.320;2024-01-30T01:18:39;96883.22;;;-2.24;66.84
38400;BME280;24180;42.676;23.320;2024-01-30T01:21:05;96918.16;;;-2.06;66.26
38400;BME280;24180;42.676;23.320;2024-01-30T01:23:31;96926.38;;;-1.98;66.87
38400;BME280;24180;42.676;23.320;2024-01-30T01:25:56;96901.94;;;-2.12;66.67
38400;BME280;24180;42.676;23.320;2024-01-30T01:28:22;96919.13;;;-2.01;66.58
38400;BME280;24180;42.676;23.320;2024-01-30T01:30:47;96906.25;;;-2.13;67.06
38400;BME280;24180;42.676;23.320;2024-01-30T01:33:12;96883.19;;;-2.38;68.02
38400;BME280;24180;42.676;23.320;2024-01-30T01:35:39;96929.22;;;-2.21;67.86
38400;BME280;24180;42.676;23.320;2024-01-30T01:38:05;96923.00;;;-2.25;66.13
38400;BME280;24180;42.676;23.320;2024-01-30T01:40:30;96907.56;;;-2.30;67.34
38400;BME280;24180;42.676;23.320;2024-01-30T01:42:56;96927.66;;;-2.22;66.36
38400;BME280;24180;42.676;23.320;2024-01-30T01:45:22;96925.75;;;-2.20;67.05
38400;BME280;24180;42.676;23.320;2024-01-30T01:47:51;96927.88;;;-2.23;66.05
38400;BME280;24180;42.676;23.320;2024-01-30T01:50:17;96925.91;;;-2.28;67.13
38400;BME280;24180;42.676;23.320;2024-01-30T01:52:50;96918.28;;;-2.35;68.19
38400;BME280;24180;42.676;23.320;2024-01-30T01:55:16;96903.84;;;-2.47;67.74
38400;BME280;24180;42.676;23.320;2024-01-30T01:57:47;96928.41;;;-2.41;68.88
38400;BME280;24180;42.676;23.320;2024-01-30T02:00:13;96923.94;;;-2.39;68.78
38400;BME280;24180;42.676;23.320;2024-01-30T02:02:39;96927.81;;;-2.37;66.95
38400;BME280;24180;42.676;23.320;2024-01-30T02:05:05;96930.75;;;-2.33;66.61
38400;BME280;24180;42.676;23.320;2024-01-30T02:07:31;96928.03;;;-2.31;66.53
38400;BME280;24180;42.676;23.320;2024-01-30T02:09:56;96914.38;;;-2.44;67.62
38400;BME280;24180;42.676;23.320;2024-01-30T02:12:22;96930.38;;;-2.30;67.28
38400;BME280;24180;42.676;23.320;2024-01-30T02:14:48;96935.06;;;-2.20;66.73
38400;BME280;24180;42.676;23.320;2024-01-30T02:17:15;96917.94;;;-2.18;66.53
38400;BME280;24180;42.676;23.320;2024-01-30T02:19:41;96936.09;;;-2.01;65.78
38400;BME280;24180;42.676;23.320;2024-01-30T02:22:07;96895.91;;;-2.18;65.04
38400;BME280;24180;42.676;23.320;2024-01-30T02:24:32;96911.53;;;-1.94;65.03
38400;BME280;24180;42.676;23.320;2024-01-30T02:26:58;96876.41;;;-2.17;65.17
38400;BME280;24180;42.676;23.320;2024-01-30T02:29:24;96925.22;;;-1.75;63.99
38400;BME280;24180;42.676;23.320;2024-01-30T02:31:49;96922.66;;;-1.69;63.87
38400;BME280;24180;42.676;23.320;2024-01-30T02:34:15;96913.88;;;-1.73;63.33
38400;BME280;24180;42.676;23.320;2024-01-30T02:36:42;96918.38;;;-1.68;63.30
38400;BME280;24180;42.676;23.320;2024-01-30T02:39:08;96900.81;;;-1.76;63.47
38400;BME280;24180;42.676;23.320;2024-01-30T02:41:33;96910.00;;;-1.75;63.35
38400;BME280;24180;42.676;23.320;2024-01-30T02:43:59;96901.56;;;-1.76;63.41
38400;BME280;24180;42.676;23.320;2024-01-30T02:46:24;96919.91;;;-1.60;62.21
38400;BME280;24180;42.676;23.320;2024-01-30T02:48:50;96901.00;;;-1.71;62.77
38400;BME280;24180;42.676;23.320;2024-01-30T02:51:16;96925.19;;;-1.49;63.15
38400;BME280;24180;42.676;23.320;2024-01-30T02:53:41;96905.09;;;-1.57;62.20
38400;BME280;24180;42.676;23.320;2024-01-30T02:56:07;96913.06;;;-1.53;61.69
38400;BME280;24180;42.676;23.320;2024-01-30T02:58:35;96930.25;;;-1.49;62.42
38400;BME280;24180;42.676;23.320;2024-01-30T03:01:01;96917.00;;;-1.57;61.88
38400;BME280;24180;42.676;23.320;2024-01-30T03:03:26;96920.28;;;-1.50;62.17
38400;BME280;24180;42.676;23.320;2024-01-30T03:05:52;96910.75;;;-1.55;61.76
38400;BME280;24180;42.676;23.320;2024-01-30T03:08:17;96923.44;;;-1.48;61.94
38400;BME280;24180;42.676;23.320;2024-01-30T03:10:42;96909.97;;;-1.49;62.50
38400;BME280;24180;42.676;23.320;2024-01-30T03:13:08;96912.50;;;-1.49;62.11
38400;BME280;24180;42.676;23.320;2024-01-30T03:15:33;96917.38;;;-1.60;61.13
38400;BME280;24180;42.676;23.320;2024-01-30T03:17:59;96899.63;;;-1.74;61.83
38400;BME280;24180;42.676;23.320;2024-01-30T03:20:24;96904.91;;;-1.55;61.90
38400;BME280;24180;42.676;23.320;2024-01-30T03:22:50;96908.41;;;-1.56;61.33
38400;BME280;24180;42.676;23.320;2024-01-30T03:25:15;96884.03;;;-1.71;61.75
38400;BME280;24180;42.676;23.320;2024-01-30T03:27:41;96901.19;;;-1.66;61.46
38400;BME280;24180;42.676;23.320;2024-01-30T03:30:07;96912.50;;;-1.55;60.97
38400;BME280;24180;42.676;23.320;2024-01-30T03:32:32;96872.50;;;-1.73;61.02
38400;BME280;24180;42.676;23.320;2024-01-30T03:34:58;96908.56;;;-1.38;60.95
38400;BME280;24180;42.676;23.320;2024-01-30T03:37:24;96913.66;;;-1.38;61.06
38400;BME280;24180;42.676;23.320;2024-01-30T03:39:49;96921.47;;;-1.39;60.48
38400;BME280;24180;42.676;23.320;2024-01-30T03:42:15;96899.81;;;-1.49;60.78
38400;BME280;24180;42.676;23.320;2024-01-30T03:44:41;96922.84;;;-1.37;60.67
38400;BME280;24180;42.676;23.320;2024-01-30T03:47:06;96905.47;;;-1.40;60.68
38400;BME280;24180;42.676;23.320;2024-01-30T03:49:32;96890.25;;;-1.40;60.04
38400;BME280;24180;42.676;23.320;2024-01-30T03:51:57;96883.22;;;-1.45;59.53
38400;BME280;24180;42.676;23.320;2024-01-30T03:54:22;96885.75;;;-1.45;59.51
38400;BME280;24180;42.676;23.320;2024-01-30T03:56:48;96886.13;;;-1.41;60.03
38400;BME280;24180;42.676;23.320;2024-01-30T03:59:13;96885.72;;;-1.38;59.37
38400;BME280;24180;42.676;23.320;2024-01-30T04:01:39;96905.44;;;-1.27;58.61
38400;BME280;24180;42.676;23.320;2024-01-30T04:04:04;96898.41;;;-1.25;59.16
38400;BME280;24180;42.676;23.320;2024-01-30T04:06:30;96891.41;;;-1.36;59.65
38400;BME280;24180;42.676;23.320;2024-01-30T04:08:55;96900.75;;;-1.30;59.18
38400;BME280;24180;42.676;23.320;2024-01-30T04:11:21;96865.50;;;-1.65;58.66
38400;BME280;24180;42.676;23.320;2024-01-30T04:13:46;96897.06;;;-1.54;59.56
38400;BME280;24180;42.676;23.320;2024-01-30T04:16:22;96901.19;;;-1.53;60.13
38400;BME280;24180;42.676;23.320;2024-01-30T04:18:48;96892.38;;;-1.50;59.41
38400;BME280;24180;42.676;23.320;2024-01-30T04:21:14;96897.66;;;-1.45;59.00
38400;BME280;24180;42.676;23.320;2024-01-30T04:23:40;96838.19;;;-1.89;59.17
38400;BME280;24180;42.676;23.320;2024-01-30T04:26:06;96904.28;;;-1.44;59.49
38400;BME280;24180;42.676;23.320;2024-01-30T04:28:32;96894.72;;;-1.42;59.46
38400;BME280;24180;42.676;23.320;2024-01-30T04:30:57;96911.91;;;-1.44;58.94
38400;BME280;24180;42.676;23.320;2024-01-30T04:33:23;96913.28;;;-1.42;59.69
38400;BME280;24180;42.676;23.320;2024-01-30T04:35:48;96893.59;;;-1.53;59.26
38400;BME280;24180;42.676;23.320;2024-01-30T04:38:14;96886.38;;;-1.56;58.87
38400;BME280;24180;42.676;23.320;2024-01-30T04:40:40;96895.91;;;-1.51;59.26
38400;BME280;24180;42.676;23.320;2024-01-30T04:43:05;96903.13;;;-1.42;59.41
38400;BME280;24180;42.676;23.320;2024-01-30T04:45:31;96914.66;;;-1.46;59.73
38400;BME280;24180;42.676;23.320;2024-01-30T04:47:56;96914.81;;;-1.47;59.61
38400;BME280;24180;42.676;23.320;2024-01-30T04:50:23;96886.78;;;-1.66;59.62
38400;BME280;24180;42.676;23.320;2024-01-30T04:52:48;96924.81;;;-1.52;61.09
38400;BME280;24180;42.676;23.320;2024-01-30T04:55:14;96905.69;;;-1.68;61.14
38400;BME280;24180;42.676;23.320;2024-01-30T04:57:39;96923.06;;;-1.72;61.32
38400;BME280;24180;42.676;23.320;2024-01-30T05:00:06;96924.59;;;-1.71;61.85
38400;BME280;24180;42.676;23.320;2024-01-30T05:02:31;96930.44;;;-1.64;61.20
38400;BME280;24180;42.676;23.320;2024-01-30T05:04:57;96924.59;;;-1.71;61.21
38400;BME280;24180;42.676;23.320;2024-01-30T05:07:24;96933.97;;;-1.78;61.12
38400;BME280;24180;42.676;23.320;2024-01-30T05:09:50;96940.22;;;-1.80;60.90
38400;BME280;24180;42.676;23.320;2024-01-30T05:12:15;96933.75;;;-1.90;61.06
38400;BME280;24180;42.676;23.320;2024-01-30T05:14:41;96936.69;;;-1.86;60.10
38400;BME280;24180;42.676;23.320;2024-01-30T05:17:06;96938.44;;;-1.93;60.56
38400;BME280;24180;42.676;23.320;2024-01-30T05:19:33;96906.25;;;-2.19;60.83
38400;BME280;24180;42.676;23.320;2024-01-30T05:21:59;96929.84;;;-2.05;62.42
38400;BME280;24180;42.676;23.320;2024-01-30T05:24:24;96922.22;;;-2.25;62.58
38400;BME280;24180;42.676;23.320;2024-01-30T05:26:49;96913.06;;;-2.26;63.55
38400;BME280;24180;42.676;23.320;2024-01-30T05:29:16;96921.41;;;-2.32;61.63
38400;BME280;24180;42.676;23.320;2024-01-30T05:31:42;96913.97;;;-2.41;62.18
38400;BME280;24180;42.676;23.320;2024-01-30T05:34:07;96909.09;;;-2.49;62.88
38400;BME280;24180;42.676;23.320;2024-01-30T05:36:34;96936.41;;;-2.38;63.37
38400;BME280;24180;42.676;23.320;2024-01-30T05:38:59;96935.03;;;-2.34;62.83
38400;BME280;24180;42.676;23.320;2024-01-30T05:41:25;96921.78;;;-2.42;62.03
38400;BME280;24180;42.676;23.320;2024-01-30T05:43:50;96937.19;;;-2.30;62.26
38400;BME280;24180;42.676;23.320;2024-01-30T05:46:16;96926.66;;;-2.41;62.48
38400;BME280;24180;42.676;23.320;2024-01-30T05:48:41;96925.25;;;-2.50;62.59
38400;BME280;24180;42.676;23.320;2024-01-30T05:51:07;96944.00;;;-2.38;62.77
38400;BME280;24180;42.676;23.320;2024-01-30T05:53:33;96933.69;;;-2.36;63.53
38400;BME280;24180;42.676;23.320;2024-01-30T05:56:02;96930.94;;;-2.41;62.77
38400;BME280;24180;42.676;23.320;2024-01-30T05:58:28;96930.13;;;-2.55;63.73
38400;BME280;24180;42.676;23.320;2024-01-30T06:00:54;96927.75;;;-2.63;65.31
38400;BME280;24180;42.676;23.320;2024-01-30T06:03:19;96941.22;;;-2.49;63.05
38400;BME280;24180;42.676;23.320;2024-01-30T06:05:45;96937.91;;;-2.50;63.17
38400;BME280;24180;42.676;23.320;2024-01-30T06:08:10;96928.91;;;-2.59;63.78
38400;BME280;24180;42.676;23.320;2024-01-30T06:10:36;96939.31;;;-2.47;62.42
38400;BME280;24180;42.676;23.320;2024-01-30T06:13:01;96917.47;;;-2.55;63.25
38400;BME280;24180;42.676;23.320;2024-01-30T06:15:27;96938.16;;;-2.38;62.59
38400;BME280;24180;42.676;23.320;2024-01-30T06:17:55;96940.69;;;-2.38;62.25
38400;BME280;24180;42.676;23.320;2024-01-30T06:20:21;96956.88;;;-2.39;62.89
38400;BME280;24180;42.676;23.320;2024-01-30T06:22:46;96934.84;;;-2.45;62.45
38400;BME280;24180;42.676;23.320;2024-01-30T06:25:12;96943.03;;;-2.37;62.56
38400;BME280;24180;42.676;23.320;2024-01-30T06:27:37;96954.53;;;-2.34;62.62
38400;BME280;24180;42.676;23.320;2024-01-30T06:30:04;96938.16;;;-2.38;63.10
38400;BME280;24180;42.676;23.320;2024-01-30T06:32:30;96936.22;;;-2.36;61.52
38400;BME280;24180;42.676;23.320;2024-01-30T06:35:02;96933.28;;;-2.40;62.26
38400;BME280;24180;42.676;23.320;2024-01-30T06:37:28;96941.72;;;-2.26;63.32
38400;BME280;24180;42.676;23.320;2024-01-30T06:39:53;96940.13;;;-2.27;62.69
38400;BME280;24180;42.676;23.320;2024-01-30T06:42:19;96904.59;;;-2.53;62.83
38400;BME280;24180;42.676;23.320;2024-01-30T06:44:45;96951.66;;;-2.18;63.03
38400;BME280;24180;42.676;23.320;2024-01-30T06:47:10;96946.19;;;-2.15;63.00
38400;BME280;24180;42.676;23.320;2024-01-30T06:49:36;96957.91;;;-2.14;62.69
38400;BME280;24180;42.676;23.320;2024-01-30T06:52:07;96927.66;;;-2.28;62.53
38400;BME280;24180;42.676;23.320;2024-01-30T06:54:33;96945.03;;;-2.19;60.37
38400;BME280;24180;42.676;23.320;2024-01-30T06:56:59;96957.53;;;-2.11;60.25
38400;BME280;24180;42.676;23.320;2024-01-30T06:59:24;96949.94;;;-2.11;60.33
38400;BME280;24180;42.676;23.320;2024-01-30T07:01:50;96935.50;;;-2.17;60.05
38400;BME280;24180;42.676;23.320;2024-01-30T07:04:15;96952.25;;;-2.09;59.96
38400;BME280;24180;42.676;23.320;2024-01-30T07:06:41;96955.78;;;-2.17;60.07
38400;BME280;24180;42.676;23.320;2024-01-30T07:09:07;96966.88;;;-2.04;60.00
38400;BME280;24180;42.676;23.320;2024-01-30T07:11:33;96953.44;;;-2.05;59.98
38400;BME280;24180;42.676;23.320;2024-01-30T07:13:59;96962.63;;;-1.91;60.01
38400;BME280;24180;42.676;23.320;2024-01-30T07:16:24;96922.25;;;-2.05;58.73
38400;BME280;24180;42.676;23.320;2024-01-30T07:18:50;96944.13;;;-1.91;58.18
38400;BME280;24180;42.676;23.320;2024-01-30T07:21:15;96949.19;;;-1.91;57.24
38400;BME280;24180;42.676;23.320;2024-01-30T07:23:41;96957.19;;;-1.74;57.04
38400;BME280;24180;42.676;23.320;2024-01-30T07:26:08;96950.53;;;-1.82;57.80
38400;BME280;24180;42.676;23.320;2024-01-30T07:28:34;96956.41;;;-1.61;57.22
38400;BME280;24180;42.676;23.320;2024-01-30T07:31:01;96957.78;;;-1.59;56.89
38400;BME280;24180;42.676;23.320;2024-01-30T07:33:29;96933.19;;;-1.72;56.92
38400;BME280;24180;42.676;23.320;2024-01-30T07:35:55;96949.19;;;-1.58;55.71
38400;BME280;24180;42.676;23.320;2024-01-30T07:38:20;96951.94;;;-1.46;55.42
38400;BME280;24180;42.676;23.320;2024-01-30T07:40:46;96950.16;;;-1.39;53.71
38400;BME280;24180;42.676;23.320;2024-01-30T07:43:12;96918.56;;;-1.76;54.17
38400;BME280;24180;42.676;23.320;2024-01-30T07:45:37;96957.00;;;-1.46;54.78
38400;BME280;24180;42.676;23.320;2024-01-30T07:48:05;96915.63;;;-1.67;54.41
38400;BME280;24180;42.676;23.320;2024-01-30T07:50:31;96909.00;;;-1.68;54.19
38400;BME280;24180;42.676;23.320;2024-01-30T07:52:56;96949.56;;;-1.41;54.84
38400;BME280;24180;42.676;23.320;2024-01-30T07:55:22;96944.09;;;-1.31;53.09
38400;BME280;24180;42.676;23.320;2024-01-30T07:57:54;96936.72;;;-1.46;54.71
38400;BME280;24180;42.676;23.320;2024-01-30T08:00:21;96948.78;;;-1.42;54.14
38400;BME280;24180;42.676;23.320;2024-01-30T08:02:46;96963.06;;;-1.34;54.78
38400;BME280;24180;42.676;23.320;2024-01-30T08:05:12;96909.59;;;-1.59;54.82
38400;BME280;24180;42.676;23.320;2024-01-30T08:07:37;96950.16;;;-1.32;54.06
38400;BME280;24180;42.676;23.320;2024-01-30T08:10:03;96942.34;;;-1.31;53.90
38400;BME280;24180;42.676;23.320;2024-01-30T08:12:28;96946.81;;;-1.13;54.11
38400;BME280;24180;42.676;23.320;2024-01-30T08:14:54;96923.38;;;-1.22;54.30
38400;BME280;24180;42.676;23.320;2024-01-30T08:17:19;96942.47;;;-0.99;53.92
38400;BME280;24180;42.676;23.320;2024-01-30T08:19:45;96926.34;;;-1.18;53.04
38400;BME280;24180;42.676;23.320;2024-01-30T08:22:12;96924.94;;;-1.07;52.63
38400;BME280;24180;42.676;23.320;2024-01-30T08:24:37;96945.81;;;-0.92;52.89
38400;BME280;24180;42.676;23.320;2024-01-30T08:27:03;96945.00;;;-0.86;53.50
38400;BME280;24180;42.676;23.320;2024-01-30T08:29:30;96945.94;;;-0.80;53.36
38400;BME280;24180;42.676;23.320;2024-01-30T08:31:55;96949.63;;;-0.69;51.89
38400;BME280;24180;42.676;23.320;2024-01-30T08:34:21;96961.69;;;-0.58;52.30
38400;BME280;24180;42.676;23.320;2024-01-30T08:36:46;96955.25;;;-0.54;51.77
38400;BME280;24180;42.676;23.320;2024-01-30T08:39:13;96931.06;;;-0.63;52.20
38400;BME280;24180;42.676;23.320;2024-01-30T08:41:38;96962.03;;;-0.41;51.07
38400;BME280;24180;42.676;23.320;2024-01-30T08:44:04;96940.03;;;-0.67;51.53
38400;BME280;24180;42.676;23.320;2024-01-30T08:46:29;96953.47;;;-0.47;50.73
38400;BME280;24180;42.676;23.320;2024-01-30T08:48:56;96932.88;;;-0.39;51.58
38400;BME280;24180;42.676;23.320;2024-01-30T08:51:21;96964.00;;;-0.05;50.12
38400;BME280;24180;42.676;23.320;2024-01-30T08:53:47;96943.78;;;0.07;49.91
38400;BME280;24180;42.676;23.320;2024-01-30T08:56:12;96964.41;;;0.23;49.15
38400;BME280;24180;42.676;23.320;2024-01-30T08:58:38;96963.31;;;0.38;49.30
38400;BME280;24180;42.676;23.320;2024-01-30T09:01:05;96948.94;;;0.50;49.03
38400;BME280;24180;42.676;23.320;2024-01-30T09:03:31;96970.78;;;0.64;48.54
38400;BME280;24180;42.676;23.320;2024-01-30T09:05:56;96959.22;;;0.62;48.58
38400;BME280;24180;42.676;23.320;2024-01-30T09:08:22;96973.03;;;0.73;49.05
38400;BME280;24180;42.676;23.320;2024-01-30T09:10:47;96981.25;;;0.75;49.30
38400;BME280;24180;42.676;23.320;2024-01-30T09:13:15;96948.03;;;0.63;48.86
38400;BME280;24180;42.676;23.320;2024-01-30T09:15:41;96974.63;;;0.92;48.45
38400;BME280;24180;42.676;23.320;2024-01-30T09:18:07;96942.28;;;0.92;48.30
38400;BME280;24180;42.676;23.320;2024-01-30T09:20:32;96964.81;;;1.32;48.39
38400;BME280;24180;42.676;23.320;2024-01-30T09:22:58;96942.22;;;1.17;47.93
38400;BME280;24180;42.676;23.320;2024-01-30T09:25:24;96959.03;;;1.25;47.86
38400;BME280;24180;42.676;23.320;2024-01-30T09:27:49;96925.97;;;1.00;46.69
38400;BME280;24180;42.676;23.320;2024-01-30T09:30:15;96951.28;;;0.95;47.66
38400;BME280;24180;42.676;23.320;2024-01-30T09:32:42;96948.34;;;0.73;49.56
38400;BME280;24180;42.676;23.320;2024-01-30T09:35:07;96944.16;;;0.60;51.19
38400;BME280;24180;42.676;23.320;2024-01-30T09:37:33;96927.50;;;0.64;50.41
38400;BME280;24180;42.676;23.320;2024-01-30T09:39:58;96936.16;;;1.00;49.35
38400;BME280;24180;42.676;23.320;2024-01-30T09:42:34;96952.91;;;1.26;49.10
38400;BME280;24180;42.676;23.320;2024-01-30T09:45:04;96930.13;;;0.95;49.87
38400;BME280;24180;42.676;23.320;2024-01-30T09:47:40;96944.41;;;0.96;50.88
38400;BME280;24180;42.676;23.320;2024-01-30T09:50:10;96922.22;;;1.03;49.45
38400;BME280;24180;42.676;23.320;2024-01-30T09:52:36;96937.09;;;1.73;47.88
38400;BME280;24180;42.676;23.320;2024-01-30T09:55:03;96928.88;;;2.13;47.58
38400;BME280;24180;42.676;23.320;2024-01-30T09:57:29;96906.91;;;2.23;45.81
38400;BME280;24180;42.676;23.320;2024-01-30T09:59:54;96945.69;;;2.55;45.78
38400;BME280;24180;42.676;23.320;2024-01-30T10:02:20;96930.00;;;3.11;43.96
38400;BME280;24180;42.676;23.320;2024-01-30T10:04:50;96934.16;;;3.69;42.40
38400;BME280;24180;42.676;23.320;2024-01-30T10:07:16;96910.78;;;3.77;42.07
38400;BME280;24180;42.676;23.320;2024-01-30T10:09:42;96915.69;;;3.95;40.75
38400;BME280;24180;42.676;23.320;2024-01-30T10:12:11;96919.00;;;4.80;40.62
38400;BME280;24180;42.676;23.320;2024-01-30T10:14:40;96905.38;;;5.41;38.11
38400;BME280;24180;42.676;23.320;2024-01-30T10:17:10;96931.97;;;5.83;37.67
38400;BME280;24180;42.676;23.320;2024-01-30T10:19:37;96917.41;;;5.89;37.24
38400;BME280;24180;42.676;23.320;2024-01-30T10:22:05;96915.41;;;6.23;35.99
38400;BME280;24180;42.676;23.320;2024-01-30T10:24:32;96932.72;;;6.75;35.51
38400;BME280;24180;42.676;23.320;2024-01-30T10:26:58;96935.06;;;6.08;35.62
38400;BME280;24180;42.676;23.320;2024-01-30T10:29:24;96935.09;;;5.15;38.71
38400;BME280;24180;42.676;23.320;2024-01-30T10:34:25;96926.53;;;5.09;38.90
38400;BME280;24180;42.676;23.320;2024-01-30T10:37:16;96907.00;;;4.30;38.65
38400;BME280;24180;42.676;23.320;2024-01-30T10:39:43;96915.81;;;3.32;41.67
38400;BME280;24180;42.676;23.320;2024-01-30T10:42:18;96925.81;;;3.45;41.81
38400;BME280;24180;42.676;23.320;2024-01-30T10:47:18;96912.97;;;4.70;39.07
38400;BME280;24180;42.676;23.320;2024-01-30T10:49:47;96909.28;;;4.82;39.62
38400;BME280;24180;42.676;23.320;2024-01-30T10:52:13;96910.50;;;4.97;38.51
38400;BME280;24180;42.676;23.320;2024-01-30T10:54:40;96915.94;;;5.44;37.22
38400;BME280;24180;42.676;23.320;2024-01-30T10:57:10;96893.22;;;5.85;36.76
38400;BME280;24180;42.676;23.320;2024-01-30T10:59:36;96892.09;;;5.98;35.76
38400;BME280;24180;42.676;23.320;2024-01-30T11:02:02;96914.44;;;6.02;36.72
38400;BME280;24180;42.676;23.320;2024-01-30T11:04:38;96906.13;;;5.63;36.36
38400;BME280;24180;42.676;23.320;2024-01-30T11:07:24;96904.59;;;5.18;38.70
38400;BME280;24180;42.676;23.320;2024-01-30T11:09:54;96885.69;;;5.24;37.65
38400;BME280;24180;42.676;23.320;2024-01-30T11:12:29;96876.41;;;6.32;36.00
38400;BME280;24180;42.676;23.320;2024-01-30T11:15:14;96886.06;;;6.51;35.46
38400;BME280;24180;42.676;23.320;2024-01-30T11:17:43;96890.59;;;6.39;35.41
38400;BME280;24180;42.676;23.320;2024-01-30T11:20:30;96896.50;;;5.80;36.95
38400;BME280;24180;42.676;23.320;2024-01-30T11:23:01;96895.22;;;5.07;37.99
38400;BME280;24180;42.676;23.320;2024-01-30T11:25:31;96873.41;;;4.43;38.99
38400;BME280;24180;42.676;23.320;2024-01-30T11:27:57;96874.66;;;3.90;40.92
38400;BME280;24180;42.676;23.320;2024-01-30T11:30:30;96848.84;;;3.18;42.67
38400;BME280;24180;42.676;23.320;2024-01-30T11:33:06;96874.09;;;3.02;43.13
38400;BME280;24180;42.676;23.320;2024-01-30T11:35:35;96881.06;;;2.67;44.18
38400;BME280;24180;42.676;23.320;2024-01-30T11:38:01;96888.91;;;3.00;43.42
38400;BME280;24180;42.676;23.320;2024-01-30T11:40:31;96874.72;;;2.81;43.95
38400;BME280;24180;42.676;23.320;2024-01-30T11:42:59;96865.41;;;2.75;44.90
38400;BME280;24180;42.676;23.320;2024-01-30T11:45:29;96881.78;;;3.02;43.49
38400;BME280;24180;42.676;23.320;2024-01-30T11:47:55;96856.47;;;2.77;44.20
38400;BME280;24180;42.676;23.320;2024-01-30T11:50:20;96862.97;;;2.68;44.24
38400;BME280;24180;42.676;23.320;2024-01-30T11:52:47;96823.25;;;2.25;44.21
38400;BME280;24180;42.676;23.320;2024-01-30T11:55:14;96863.53;;;2.35;44.56
38400;BME280;24180;42.676;23.320;2024-01-30T11:57:40;96870.72;;;2.26;45.31
38400;BME280;24180;42.676;23.320;2024-01-30T12:00:06;96852.97;;;2.31;45.57
38400;BME280;24180;42.676;23.320;2024-01-30T12:02:39;96860.06;;;2.29;45.08
38400;BME280;24180;42.676;23.320;2024-01-30T12:05:06;96835.75;;;2.03;46.30
38400;BME280;24180;42.676;23.320;2024-01-30T12:07:35;96852.53;;;1.99;46.25
38400;BME280;24180;42.676;23.320;2024-01-30T12:10:01;96843.72;;;1.83;47.02
38400;BME280;24180;42.676;23.320;2024-01-30T12:12:28;96833.72;;;1.70;47.04
38400;BME280;24180;42.676;23.320;2024-01-30T12:14:55;96821.38;;;1.55;47.11
38400;BME280;24180;42.676;23.320;2024-01-30T12:17:39;96834.25;;;1.60;47.68
38400;BME280;24180;42.676;23.320;2024-01-30T12:20:12;96833.91;;;1.57;47.87
38400;BME280;24180;42.676;23.320;2024-01-30T12:22:40;96829.66;;;1.39;48.81
38400;BME280;24180;42.676;23.320;2024-01-30T12:25:14;96816.84;;;1.15;48.86
38400;BME280;24180;42.676;23.320;2024-01-30T12:27:43;96827.56;;;1.17;49.40
38400;BME280;24180;42.676;23.320;2024-01-30T12:30:10;96804.03;;;1.04;49.52
38400;BME280;24180;42.676;23.320;2024-01-30T12:32:36;96826.44;;;1.13;49.68
38400;BME280;24180;42.676;23.320;2024-01-30T12:35:02;96828.91;;;1.20;49.55
38400;BME280;24180;42.676;23.320;2024-01-30T12:37:29;96822.19;;;1.26;49.39
38400;BME280;24180;42.676;23.320;2024-01-30T12:39:55;96815.78;;;1.35;49.04
38400;BME280;24180;42.676;23.320;2024-01-30T12:42:21;96794.16;;;1.26;49.45
38400;BME280;24180;42.676;23.320;2024-01-30T12:44:48;96814.22;;;1.34;49.31
38400;BME280;24180;42.676;23.320;2024-01-30T12:47:13;96789.66;;;1.09;48.80
38400;BME280;24180;42.676;23.320;2024-01-30T12:49:44;96818.50;;;1.22;48.80
38400;BME280;24180;42.676;23.320;2024-01-30T12:52:16;96811.41;;;1.24;49.95
38400;BME280;24180;42.676;23.320;2024-01-30T12:54:42;96807.31;;;1.23;49.21